sensor_id;sensor_type;location;lat;lon;timestamp;pressure;altitude;pressure_sealevel;temperature;humidity
71573;BME280;59408;51.032;9.410;2023-04-15T00:00:55;98194.63;;;3.06;100.00
71573;BME280;59408;51.032;9.410;2023-04-15T00:03:22;98194.63;;;3.06;100.00
71573;BME280;59408;51.032;9.410;2023-04-15T00:05:49;98196.53;;;3.05;100.00
71573;BME280;59408;51.032;9.410;2023-04-15T00:08:15;98196.03;;;3.03;100.00
71573;BME280;59408;51.032;9.410;2023-04-15T00:10:43;98195.09;;;2.99;100.00
71573;BME280;59408;51.032;9.410;2023-04-15T00:13:10;98194.59;;;2.97;100.00
71573;BME280;59408;51.032;9.410;2023-04-15T00:15:36;98199.78;;;2.94;100.00
71573;BME280;59408;51.032;9.410;2023-04-15T00:18:03;98191.88;;;2.89;100.00
71573;BME280;59408;51.032;9.410;2023-04-15T00:20:30;98203.72;;;2.88;100.00
71573;BME280;59408;51.032;9.410;2023-04-15T00:22:56;98195.16;;;2.86;100.00
71573;BME280;59408;51.032;9.410;2023-04-15T00:25:23;98190.22;;;2.79;100.00
71573;BME280;59408;51.032;9.410;2023-04-15T00:27:51;98199.22;;;2.74;100.00
71573;BME280;59408;51.032;9.410;2023-04-15T00:30:18;98192.56;;;2.72;100.00
71573;BME280;59408;51.032;9.410;2023-04-15T00:32:44;98194.28;;;2.68;100.00
71573;BME280;59408;51.032;9.410;2023-04-15T00:35:13;98192.19;;;2.65;100.00
71573;BME280;59408;51.032;9.410;2023-04-15T00:37:40;98192.31;;;2.60;100.00
71573;BME280;59408;51.032;9.410;2023-04-15T00:40:11;98187.53;;;2.57;100.00
71573;BME280;59408;51.032;9.410;2023-04-15T00:42:38;98192.75;;;2.53;100.00
71573;BME280;59408;51.032;9.410;2023-04-15T00:45:07;98191.47;;;2.51;100.00
71573;BME280;59408;51.032;9.410;2023-04-15T00:47:35;98202.84;;;2.48;100.00
71573;BME280;59408;51.032;9.410;2023-04-15T00:50:01;98196.19;;;2.45;100.00
71573;BME280;59408;51.032;9.410;2023-04-15T00:52:28;98188.91;;;2.46;100.00
71573;BME280;59408;51.032;9.410;2023-04-15T00:54:55;98186.81;;;2.43;100.00
71573;BME280;59408;51.032;9.410;2023-04-15T00:57:21;98183.66;;;2.41;100.00
71573;BME280;59408;51.032;9.410;2023-04-15T00:59:48;98189.63;;;2.37;100.00
71573;BME280;59408;51.032;9.410;2023-04-15T01:02:16;98186.78;;;2.34;100.00
71573;BME280;59408;51.032;9.410;2023-04-15T01:04:43;98181.19;;;2.30;100.00
71573;BME280;59408;51.032;9.410;2023-04-15T01:07:10;98185.59;;;2.26;100.00
71573;BME280;59408;51.032;9.410;2023-04-15T01:09:46;98177.66;;;2.21;100.00
71573;BME280;59408;51.032;9.410;2023-04-15T01:12:13;98174.16;;;2.21;100.00
71573;BME280;59408;51.032;9.410;2023-04-15T01:14:40;98178.75;;;2.20;100.00
71573;BME280;59408;51.032;9.410;2023-04-15T01:17:07;98177.16;;;2.19;100.00
71573;BME280;59408;51.032;9.410;2023-04-15T01:19:35;98174.44;;;2.19;100.00
71573;BME280;59408;51.032;9.410;2023-04-15T01:22:02;98182.34;;;2.16;100.00
71573;BME280;59408;51.032;9.410;2023-04-15T01:24:29;98178.06;;;2.15;100.00
71573;BME280;59408;51.032;9.410;2023-04-15T01:26:58;98184.34;;;2.10;100.00
71573;BME280;59408;51.032;9.410;2023-04-15T01:29:25;98181.19;;;2.08;100.00
71573;BME280;59408;51.032;9.410;2023-04-15T01:31:53;98178.00;;;2.06;100.00
71573;BME280;59408;51.032;9.410;2023-04-15T01:34:20;98174.03;;;2.04;100.00
71573;BME280;59408;51.032;9.410;2023-04-15T01:36:47;98177.81;;;2.03;100.00
71573;BME280;59408;51.032;9.410;2023-04-15T01:39:14;98171.94;;;2.00;100.00
71573;BME280;59408;51.032;9.410;2023-04-15T01:41:40;98173.53;;;2.01;100.00
71573;BME280;59408;51.032;9.410;2023-04-15T01:44:08;98171.63;;;2.02;100.00
71573;BME280;59408;51.032;9.410;2023-04-15T01:46:35;98171.94;;;2.00;100.00
71573;BME280;59408;51.032;9.410;2023-04-15T01:49:02;98171.94;;;2.00;100.00
71573;BME280;59408;51.032;9.410;2023-04-15T01:51:28;98167.34;;;2.01;100.00
71573;BME280;59408;51.032;9.410;2023-04-15T01:53:55;98174.63;;;2.00;100.00
71573;BME280;59408;51.032;9.410;2023-04-15T01:56:22;98171.47;;;1.98;100.00
71573;BME280;59408;51.032;9.410;2023-04-15T01:58:49;98172.06;;;1.95;100.00
71573;BME280;59408;51.032;9.410;2023-04-15T02:01:17;98167.28;;;1.92;100.00
71573;BME280;59408;51.032;9.410;2023-04-15T02:03:44;98167.91;;;1.89;100.00
71573;BME280;59408;51.032;9.410;2023-04-15T02:06:11;98163.91;;;1.87;100.00
71573;BME280;59408;51.032;9.410;2023-04-15T02:08:37;98160.44;;;1.86;100.00
71573;BME280;59408;51.032;9.410;2023-04-15T02:11:04;98163.91;;;1.87;100.00
71573;BME280;59408;51.032;9.410;2023-04-15T02:13:30;98165.50;;;1.88;100.00
71573;BME280;59408;51.032;9.410;2023-04-15T02:15:57;98171.19;;;1.86;100.00
71573;BME280;59408;51.032;9.410;2023-04-15T02:18:25;98160.13;;;1.88;100.00
71573;BME280;59408;51.032;9.410;2023-04-15T02:20:52;98160.72;;;1.85;100.00
71573;BME280;59408;51.032;9.410;2023-04-15T02:23:19;98162.81;;;1.88;100.00
71573;BME280;59408;51.032;9.410;2023-04-15T02:25:45;98157.44;;;1.88;100.00
71573;BME280;59408;51.032;9.410;2023-04-15T02:28:19;98155.84;;;1.87;100.00
71573;BME280;59408;51.032;9.410;2023-04-15T02:30:47;98158.25;;;1.88;100.00
71573;BME280;59408;51.032;9.410;2023-04-15T02:33:13;98160.13;;;1.88;100.00
71573;BME280;59408;51.032;9.410;2023-04-15T02:35:41;98166.59;;;1.87;100.00
71573;BME280;59408;51.032;9.410;2023-04-15T02:38:08;98174.19;;;1.85;100.00
71573;BME280;59408;51.032;9.410;2023-04-15T02:40:34;98166.59;;;1.87;100.00
71573;BME280;59408;51.032;9.410;2023-04-15T02:43:01;98163.63;;;1.88;100.00
71573;BME280;59408;51.032;9.410;2023-04-15T02:45:27;98166.31;;;1.88;100.00
71573;BME280;59408;51.032;9.410;2023-04-15T02:47:54;98166.31;;;1.88;100.00
71573;BME280;59408;51.032;9.410;2023-04-15T02:50:20;98168.69;;;1.90;100.00
71573;BME280;59408;51.032;9.410;2023-04-15T02:52:48;98167.91;;;1.89;100.00
71573;BME280;59408;51.032;9.410;2023-04-15T02:55:15;98167.69;;;1.86;100.00
71573;BME280;59408;51.032;9.410;2023-04-15T02:57:42;98166.00;;;1.90;100.00
71573;BME280;59408;51.032;9.410;2023-04-15T03:00:09;98165.69;;;1.91;100.00
71573;BME280;59408;51.032;9.410;2023-04-15T03:02:36;98163.63;;;1.88;100.00
71573;BME280;59408;51.032;9.410;2023-04-15T03:05:04;98169.00;;;1.88;100.00
71573;BME280;59408;51.032;9.410;2023-04-15T03:07:31;98165.81;;;1.86;100.00
71573;BME280;59408;51.032;9.410;2023-04-15T03:09:59;98159.94;;;1.84;100.00
71573;BME280;59408;51.032;9.410;2023-04-15T03:12:25;98166.72;;;1.82;100.00
71573;BME280;59408;51.032;9.410;2023-04-15T03:14:52;98157.88;;;1.81;100.00
71573;BME280;59408;51.032;9.410;2023-04-15T03:17:19;98165.44;;;1.79;100.00
71573;BME280;59408;51.032;9.410;2023-04-15T03:19:45;98168.41;;;1.78;100.00
71573;BME280;59408;51.032;9.410;2023-04-15T03:22:12;98156.88;;;1.77;100.00
71573;BME280;59408;51.032;9.410;2023-04-15T03:24:38;98154.78;;;1.74;100.00
71573;BME280;59408;51.032;9.410;2023-04-15T03:27:06;98158.56;;;1.73;100.00
71573;BME280;59408;51.032;9.410;2023-04-15T03:29:33;98154.09;;;1.69;100.00
71573;BME280;59408;51.032;9.410;2023-04-15T03:32:00;98146.63;;;1.66;100.00
71573;BME280;59408;51.032;9.410;2023-04-15T03:34:26;98149.63;;;1.64;100.00
71573;BME280;59408;51.032;9.410;2023-04-15T03:36:53;98144.88;;;1.61;100.00
71573;BME280;59408;51.032;9.410;2023-04-15T03:39:19;98143.56;;;1.58;100.00
71573;BME280;59408;51.032;9.410;2023-04-15T03:41:46;98157.59;;;1.55;100.00
71573;BME280;59408;51.032;9.410;2023-04-15T03:44:14;98147.47;;;1.52;100.00
71573;BME280;59408;51.032;9.410;2023-04-15T03:46:40;98154.53;;;1.48;100.00
71573;BME280;59408;51.032;9.410;2023-04-15T03:49:07;98152.16;;;1.47;100.00
71573;BME280;59408;51.032;9.410;2023-04-15T03:51:34;98153.84;;;1.43;100.00
71573;BME280;59408;51.032;9.410;2023-04-15T03:54:00;98167.09;;;1.39;100.00
71573;BME280;59408;51.032;9.410;2023-04-15T03:56:27;98155.94;;;1.32;100.00
71573;BME280;59408;51.032;9.410;2023-04-15T03:58:53;98164.13;;;1.27;100.00
71573;BME280;59408;51.032;9.410;2023-04-15T04:01:21;98163.41;;;1.21;100.00
71573;BME280;59408;51.032;9.410;2023-04-15T04:03:48;98164.50;;;1.20;100.00
71573;BME280;59408;51.032;9.410;2023-04-15T04:06:15;98162.91;;;1.19;100.00
71573;BME280;59408;51.032;9.410;2023-04-15T04:08:42;98158.44;;;1.15;100.00
71573;BME280;59408;51.032;9.410;2023-04-15T04:11:08;98165.50;;;1.11;100.00
71573;BME280;59408;51.032;9.410;2023-04-15T04:13:35;98158.06;;;1.08;100.00
71573;BME280;59408;51.032;9.410;2023-04-15T04:16:02;98158.66;;;1.05;100.00
71573;BME280;59408;51.032;9.410;2023-04-15T04:18:30;98164.31;;;1.03;100.00
71573;BME280;59408;51.032;9.410;2023-04-15T04:20:57;98164.94;;;1.00;100.00
71573;BME280;59408;51.032;9.410;2023-04-15T04:23:23;98156.88;;;1.00;100.00
71573;BME280;59408;51.032;9.410;2023-04-15T04:25:50;98154.78;;;0.97;100.00
71573;BME280;59408;51.032;9.410;2023-04-15T04:28:17;98154.25;;;0.95;100.00
71573;BME280;59408;51.032;9.410;2023-04-15T04:30:44;98152.66;;;0.94;100.00
71573;BME280;59408;51.032;9.410;2023-04-15T04:33:10;98148.38;;;0.93;100.00
71573;BME280;59408;51.032;9.410;2023-04-15T04:35:38;98159.63;;;0.95;100.00
71573;BME280;59408;51.032;9.410;2023-04-15T04:38:05;98162.81;;;0.97;100.00
71573;BME280;59408;51.032;9.410;2023-04-15T04:40:31;98157.16;;;0.99;100.00
71573;BME280;59408;51.032;9.410;2023-04-15T04:42:58;98160.81;;;1.03;100.00
71573;BME280;59408;51.032;9.410;2023-04-15T04:45:25;98168.50;;;1.09;100.00
71573;BME280;59408;51.032;9.410;2023-04-15T04:47:51;98175.94;;;1.12;100.00
71573;BME280;59408;51.032;9.410;2023-04-15T04:50:18;98178.56;;;1.17;100.00
71573;BME280;59408;51.032;9.410;2023-04-15T04:52:46;98176.56;;;1.23;100.00
71573;BME280;59408;51.032;9.410;2023-04-15T04:55:12;98182.13;;;1.27;100.00
71573;BME280;59408;51.032;9.410;2023-04-15T04:57:39;98173.97;;;1.32;100.00
71573;BME280;59408;51.032;9.410;2023-04-15T05:00:06;98175.44;;;1.38;100.00
71573;BME280;59408;51.032;9.410;2023-04-15T05:02:33;98177.75;;;1.44;100.00
71573;BME280;59408;51.032;9.410;2023-04-15T05:05:00;98173.84;;;1.50;100.00
71573;BME280;59408;51.032;9.410;2023-04-15T05:07:27;98181.78;;;1.55;100.00
71573;BME280;59408;51.032;9.410;2023-04-15T05:09:55;98186.28;;;1.60;100.00
71573;BME280;59408;51.032;9.410;2023-04-15T05:12:21;98189.06;;;1.69;100.00
71573;BME280;59408;51.032;9.410;2023-04-15T05:14:48;98190.06;;;1.73;100.00
71573;BME280;59408;51.032;9.410;2023-04-15T05:17:15;98189.81;;;1.83;100.00
71573;BME280;59408;51.032;9.410;2023-04-15T05:19:41;98194.78;;;1.89;100.00
71573;BME280;59408;51.032;9.410;2023-04-15T05:22:08;98192.47;;;1.96;100.00
71573;BME280;59408;51.032;9.410;2023-04-15T05:24:34;98202.31;;;2.01;100.00
71573;BME280;59408;51.032;9.410;2023-04-15T05:27:02;98201.13;;;2.07;100.00
71573;BME280;59408;51.032;9.410;2023-04-15T05:29:29;98207.66;;;2.15;100.00
71573;BME280;59408;51.032;9.410;2023-04-15T05:31:55;98208.03;;;2.22;100.00
71573;BME280;59408;51.032;9.410;2023-04-15T05:34:22;98212.97;;;2.28;100.00
71573;BME280;59408;51.032;9.410;2023-04-15T05:36:48;98205.97;;;2.41;100.00
71573;BME280;59408;51.032;9.410;2023-04-15T05:39:15;98208.28;;;2.56;100.00
71573;BME280;59408;51.032;9.410;2023-04-15T05:41:41;98207.13;;;2.71;100.00
71573;BME280;59408;51.032;9.410;2023-04-15T05:44:09;98204.97;;;2.82;100.00
71573;BME280;59408;51.032;9.410;2023-04-15T05:46:36;98205.03;;;2.90;100.00
71573;BME280;59408;51.032;9.410;2023-04-15T05:49:03;98213.94;;;2.99;100.00
71573;BME280;59408;51.032;9.410;2023-04-15T05:51:29;98201.13;;;3.05;100.00
71573;BME280;59408;51.032;9.410;2023-04-15T05:53:56;98205.44;;;3.14;100.00
71573;BME280;59408;51.032;9.410;2023-04-15T05:56:22;98203.59;;;3.24;100.00
71573;BME280;59408;51.032;9.410;2023-04-15T05:58:49;98197.75;;;3.30;100.00
71573;BME280;59408;51.032;9.410;2023-04-15T06:01:20;98203.66;;;3.41;100.00
71573;BME280;59408;51.032;9.410;2023-04-15T06:03:47;98202.09;;;3.57;100.00
71573;BME280;59408;51.032;9.410;2023-04-15T06:06:13;98210.69;;;3.68;100.00
71573;BME280;59408;51.032;9.410;2023-04-15T06:08:40;98210.72;;;3.85;100.00
71573;BME280;59408;51.032;9.410;2023-04-15T06:11:07;98207.44;;;4.05;100.00
71573;BME280;59408;51.032;9.410;2023-04-15T06:13:33;98209.53;;;4.17;100.00
71573;BME280;59408;51.032;9.410;2023-04-15T06:16:00;98211.44;;;4.25;100.00
71573;BME280;59408;51.032;9.410;2023-04-15T06:18:28;98215.84;;;4.30;100.00
71573;BME280;59408;51.032;9.410;2023-04-15T06:20:55;98204.44;;;4.24;100.00
71573;BME280;59408;51.032;9.410;2023-04-15T06:23:21;98210.75;;;4.28;100.00
71573;BME280;59408;51.032;9.410;2023-04-15T06:25:48;98218.25;;;4.40;100.00
71573;BME280;59408;51.032;9.410;2023-04-15T06:28:14;98212.69;;;4.45;100.00
71573;BME280;59408;51.032;9.410;2023-04-15T06:30:41;98215.22;;;4.50;100.00
71573;BME280;59408;51.032;9.410;2023-04-15T06:33:08;98215.53;;;4.48;100.00
71573;BME280;59408;51.032;9.410;2023-04-15T06:35:36;98223.00;;;4.51;100.00
71573;BME280;59408;51.032;9.410;2023-04-15T06:38:02;98222.03;;;4.47;100.00
71573;BME280;59408;51.032;9.410;2023-04-15T06:40:29;98228.91;;;4.45;100.00
71573;BME280;59408;51.032;9.410;2023-04-15T06:42:55;98228.72;;;4.50;100.00
71573;BME280;59408;51.032;9.410;2023-04-15T06:45:22;98227.63;;;4.51;100.00
71573;BME280;59408;51.032;9.410;2023-04-15T06:47:49;98232.84;;;4.56;100.00
71573;BME280;59408;51.032;9.410;2023-04-15T06:50:15;98229.69;;;4.54;100.00
71573;BME280;59408;51.032;9.410;2023-04-15T06:52:43;98227.44;;;4.56;100.00
71573;BME280;59408;51.032;9.410;2023-04-15T06:55:10;98227.91;;;4.58;100.00
71573;BME280;59408;51.032;9.410;2023-04-15T06:57:36;98223.97;;;4.64;100.00
71573;BME280;59408;51.032;9.410;2023-04-15T07:00:03;98227.91;;;4.58;100.00
71573;BME280;59408;51.032;9.410;2023-04-15T07:02:30;98233.78;;;4.69;100.00
71573;BME280;59408;51.032;9.410;2023-04-15T07:04:57;98231.72;;;4.74;100.00
71573;BME280;59408;51.032;9.410;2023-04-15T07:07:24;98230.94;;;4.91;100.00
71573;BME280;59408;51.032;9.410;2023-04-15T07:09:52;98229.94;;;5.04;100.00
71573;BME280;59408;51.032;9.410;2023-04-15T07:12:19;98236.13;;;5.13;100.00
71573;BME280;59408;51.032;9.410;2023-04-15T07:14:45;98234.81;;;5.19;100.00
71573;BME280;59408;51.032;9.410;2023-04-15T07:17:12;98231.50;;;5.14;100.00
71573;BME280;59408;51.032;9.410;2023-04-15T07:19:39;98226.38;;;5.21;100.00
71573;BME280;59408;51.032;9.410;2023-04-15T07:22:06;98230.69;;;5.22;100.00
71573;BME280;59408;51.032;9.410;2023-04-15T07:24:32;98229.28;;;5.16;100.00
71573;BME280;59408;51.032;9.410;2023-04-15T07:27:00;98238.94;;;5.25;100.00
71573;BME280;59408;51.032;9.410;2023-04-15T07:29:27;98224.78;;;5.20;100.00
71573;BME280;59408;51.032;9.410;2023-04-15T07:31:54;98223.69;;;5.21;100.00
71573;BME280;59408;51.032;9.410;2023-04-15T07:34:20;98220.81;;;5.26;100.00
71573;BME280;59408;51.032;9.410;2023-04-15T07:36:47;98219.72;;;5.27;100.00
71573;BME280;59408;51.032;9.410;2023-04-15T07:39:13;98222.38;;;5.35;100.00
71573;BME280;59408;51.032;9.410;2023-04-15T07:41:40;98223.50;;;5.34;100.00
71573;BME280;59408;51.032;9.410;2023-04-15T07:44:08;98222.19;;;5.41;100.00
71573;BME280;59408;51.032;9.410;2023-04-15T07:46:34;98227.97;;;5.22;100.00
71573;BME280;59408;51.032;9.410;2023-04-15T07:49:01;98229.25;;;5.24;100.00
71573;BME280;59408;51.032;9.410;2023-04-15T07:51:28;98226.53;;;5.24;100.00
71573;BME280;59408;51.032;9.410;2023-04-15T07:53:55;98224.44;;;5.30;100.00
71573;BME280;59408;51.032;9.410;2023-04-15T07:56:21;98231.63;;;5.26;100.00
71573;BME280;59408;51.032;9.410;2023-04-15T07:58:48;98226.66;;;5.36;100.00
71573;BME280;59408;51.032;9.410;2023-04-15T08:01:16;98228.34;;;5.50;100.00
71573;BME280;59408;51.032;9.410;2023-04-15T08:03:43;98218.56;;;5.36;100.00
71573;BME280;59408;51.032;9.410;2023-04-15T08:06:09;98224.72;;;5.46;100.00
71573;BME280;59408;51.032;9.410;2023-04-15T08:08:36;98232.97;;;5.49;100.00
71573;BME280;59408;51.032;9.410;2023-04-15T08:11:02;98228.03;;;5.51;100.00
71573;BME280;59408;51.032;9.410;2023-04-15T08:13:29;98232.78;;;5.54;100.00
71573;BME280;59408;51.032;9.410;2023-04-15T08:16:12;98222.94;;;5.50;100.00
71573;BME280;59408;51.032;9.410;2023-04-15T08:18:41;98227.75;;;5.44;100.00
71573;BME280;59408;51.032;9.410;2023-04-15T08:21:07;98233.22;;;5.27;100.00
71573;BME280;59408;51.032;9.410;2023-04-15T08:23:34;98226.19;;;5.34;100.00
71573;BME280;59408;51.032;9.410;2023-04-15T08:26:01;98233.81;;;5.32;100.00
71573;BME280;59408;51.032;9.410;2023-04-15T08:28:27;98230.00;;;5.33;100.00
71573;BME280;59408;51.032;9.410;2023-04-15T08:30:54;98231.59;;;5.34;100.00
71573;BME280;59408;51.032;9.410;2023-04-15T08:33:20;98234.91;;;5.40;100.00
71573;BME280;59408;51.032;9.410;2023-04-15T08:35:49;98231.59;;;5.34;100.00
71573;BME280;59408;51.032;9.410;2023-04-15T08:38:15;98240.19;;;5.36;100.00
71573;BME280;59408;51.032;9.410;2023-04-15T08:40:43;98234.13;;;5.39;100.00
71573;BME280;59408;51.032;9.410;2023-04-15T08:43:12;98239.72;;;5.34;100.00
71573;BME280;59408;51.032;9.410;2023-04-15T08:45:40;98234.78;;;5.36;100.00
71573;BME280;59408;51.032;9.410;2023-04-15T08:48:08;98241.75;;;5.37;100.00
71573;BME280;59408;51.032;9.410;2023-04-15T08:50:35;98240.78;;;5.42;100.00
71573;BME280;59408;51.032;9.410;2023-04-15T08:53:03;98233.75;;;5.50;100.00
71573;BME280;59408;51.032;9.410;2023-04-15T08:55:32;98235.06;;;5.44;100.00
71573;BME280;59408;51.032;9.410;2023-04-15T08:58:01;98228.19;;;5.55;100.00
71573;BME280;59408;51.032;9.410;2023-04-15T09:00:28;98235.97;;;5.48;100.00
71573;BME280;59408;51.032;9.410;2023-04-15T09:02:57;98232.78;;;5.54;100.00
71573;BME280;59408;51.032;9.410;2023-04-15T09:05:24;98241.22;;;5.53;100.00
71573;BME280;59408;51.032;9.410;2023-04-15T09:07:51;98237.41;;;5.54;100.00
71573;BME280;59408;51.032;9.410;2023-04-15T09:10:19;98236.91;;;5.60;100.00
71573;BME280;59408;51.032;9.410;2023-04-15T09:12:45;98243.25;;;5.56;100.00
71573;BME280;59408;51.032;9.410;2023-04-15T09:15:12;98246.28;;;5.63;100.00
71573;BME280;59408;51.032;9.410;2023-04-15T09:17:41;98243.56;;;5.63;100.00
71573;BME280;59408;51.032;9.410;2023-04-15T09:20:10;98246.41;;;5.66;100.00
71573;BME280;59408;51.032;9.410;2023-04-15T09:22:37;98244.97;;;5.69;100.00
71573;BME280;59408;51.032;9.410;2023-04-15T09:25:25;98244.03;;;5.65;100.00
71573;BME280;59408;51.032;9.410;2023-04-15T09:27:53;98248.78;;;5.68;100.00
71573;BME280;59408;51.032;9.410;2023-04-15T09:30:20;98249.78;;;5.63;100.00
71573;BME280;59408;51.032;9.410;2023-04-15T09:32:49;98261.03;;;5.65;100.00
71573;BME280;59408;51.032;9.410;2023-04-15T09:35:16;98257.53;;;5.65;100.00
71573;BME280;59408;51.032;9.410;2023-04-15T09:37:43;98258.03;;;5.67;100.00
71573;BME280;59408;51.032;9.410;2023-04-15T09:40:10;98259.59;;;5.68;100.00
71573;BME280;59408;51.032;9.410;2023-04-15T09:42:53;98261.84;;;5.66;100.00
71573;BME280;59408;51.032;9.410;2023-04-15T09:45:20;98262.84;;;5.61;100.00
71573;BME280;59408;51.032;9.410;2023-04-15T09:47:47;98260.91;;;5.62;100.00
71573;BME280;59408;51.032;9.410;2023-04-15T09:50:14;98263.34;;;5.55;100.00
71573;BME280;59408;51.032;9.410;2023-04-15T09:52:54;98260.47;;;5.51;100.00
71573;BME280;59408;51.032;9.410;2023-04-15T09:55:21;98270.00;;;5.57;100.00
71573;BME280;59408;51.032;9.410;2023-04-15T09:57:49;98269.19;;;5.57;100.00
71573;BME280;59408;51.032;9.410;2023-04-15T10:00:16;98268.88;;;5.58;100.00
71573;BME280;59408;51.032;9.410;2023-04-15T10:02:43;98265.53;;;5.61;100.00
71573;BME280;59408;51.032;9.410;2023-04-15T10:05:13;98271.75;;;5.62;100.00
71573;BME280;59408;51.032;9.410;2023-04-15T10:07:40;98275.25;;;5.62;100.00
71573;BME280;59408;51.032;9.410;2023-04-15T10:10:08;98270.63;;;5.63;100.00
71573;BME280;59408;51.032;9.410;2023-04-15T10:12:36;98269.84;;;5.62;100.00
71573;BME280;59408;51.032;9.410;2023-04-15T10:15:05;98278.28;;;5.61;100.00
71573;BME280;59408;51.032;9.410;2023-04-15T10:17:33;98284.75;;;5.68;100.00
71573;BME280;59408;51.032;9.410;2023-04-15T10:20:00;98278.06;;;5.66;100.00
71573;BME280;59408;51.032;9.410;2023-04-15T10:22:27;98274.09;;;5.72;100.00
71573;BME280;59408;51.032;9.410;2023-04-15T10:24:55;98282.66;;;5.74;100.00
71573;BME280;59408;51.032;9.410;2023-04-15T10:27:22;98284.13;;;5.71;100.00
71573;BME280;59408;51.032;9.410;2023-04-15T10:29:49;98279.81;;;5.70;100.00
71573;BME280;59408;51.032;9.410;2023-04-15T10:32:19;98277.44;;;5.69;100.00
71573;BME280;59408;51.032;9.410;2023-04-15T10:34:48;98289.25;;;5.64;100.00
71573;BME280;59408;51.032;9.410;2023-04-15T10:37:20;98281.91;;;5.65;100.00
71573;BME280;59408;51.032;9.410;2023-04-15T10:39:46;98287.81;;;5.58;100.00
71573;BME280;59408;51.032;9.410;2023-04-15T10:42:15;98283.16;;;5.67;100.00
71573;BME280;59408;51.032;9.410;2023-04-15T10:44:43;98297.69;;;5.63;100.00
71573;BME280;59408;51.032;9.410;2023-04-15T10:47:12;98287.94;;;5.70;100.00
71573;BME280;59408;51.032;9.410;2023-04-15T10:49:47;98289.06;;;5.69;100.00
71573;BME280;59408;51.032;9.410;2023-04-15T10:52:15;98292.72;;;5.65;100.00
71573;BME280;59408;51.032;9.410;2023-04-15T10:54:42;98300.84;;;5.65;100.00
71573;BME280;59408;51.032;9.410;2023-04-15T10:57:14;98296.88;;;5.62;100.00
71573;BME280;59408;51.032;9.410;2023-04-15T11:00:10;98304.03;;;5.58;100.00
71573;BME280;59408;51.032;9.410;2023-04-15T11:02:42;98304.53;;;5.60;100.00
71573;BME280;59408;51.032;9.410;2023-04-15T11:08:11;98316.63;;;5.63;100.00
71573;BME280;59408;51.032;9.410;2023-04-15T11:10:53;98303.41;;;5.61;100.00
71573;BME280;59408;51.032;9.410;2023-04-15T11:13:21;98315.81;;;5.62;100.00
71573;BME280;59408;51.032;9.410;2023-04-15T11:15:48;98325.97;;;5.65;100.00
71573;BME280;59408;51.032;9.410;2023-04-15T11:18:16;98326.97;;;5.61;100.00
71573;BME280;59408;51.032;9.410;2023-04-15T11:20:45;98330.94;;;5.63;100.00
71573;BME280;59408;51.032;9.410;2023-04-15T11:23:14;98330.94;;;5.63;100.00
71573;BME280;59408;51.032;9.410;2023-04-15T11:25:41;98341.13;;;5.58;100.00
71573;BME280;59408;51.032;9.410;2023-04-15T11:28:10;98343.53;;;5.51;100.00
71573;BME280;59408;51.032;9.410;2023-04-15T11:30:38;98331.59;;;5.52;100.00
71573;BME280;59408;51.032;9.410;2023-04-15T11:33:06;98344.94;;;5.57;100.00
71573;BME280;59408;51.032;9.410;2023-04-15T11:35:34;98350.81;;;5.59;100.00
71573;BME280;59408;51.032;9.410;2023-04-15T11:38:02;98344.34;;;5.51;100.00
71573;BME280;59408;51.032;9.410;2023-04-15T11:40:30;98346.06;;;5.56;100.00
71573;BME280;59408;51.032;9.410;2023-04-15T11:43:04;98344.81;;;5.53;100.00
71573;BME280;59408;51.032;9.410;2023-04-15T11:45:31;98343.69;;;5.54;100.00
71573;BME280;59408;51.032;9.410;2023-04-15T11:48:05;98348.31;;;5.54;100.00
71573;BME280;59408;51.032;9.410;2023-04-15T11:50:32;98343.22;;;5.52;100.00
71573;BME280;59408;51.032;9.410;2023-04-15T11:53:00;98353.72;;;5.54;100.00
71573;BME280;59408;51.032;9.410;2023-04-15T11:55:27;98350.34;;;5.57;100.00
71573;BME280;59408;51.032;9.410;2023-04-15T11:58:12;98345.75;;;5.57;100.00
71573;BME280;59408;51.032;9.410;2023-04-15T12:00:45;98352.41;;;5.60;100.00
71573;BME280;59408;51.032;9.410;2023-04-15T12:03:13;98354.81;;;5.61;100.00
71573;BME280;59408;51.032;9.410;2023-04-15T12:06:14;98354.81;;;5.61;100.00
71573;BME280;59408;51.032;9.410;2023-04-15T12:08:49;98360.53;;;5.60;100.00
71573;BME280;59408;51.032;9.410;2023-04-15T12:11:16;98356.25;;;5.59;100.00
71573;BME280;59408;51.032;9.410;2023-04-15T12:13:45;98359.44;;;5.61;100.00
71573;BME280;59408;51.032;9.410;2023-04-15T12:16:12;98369.13;;;5.62;100.00
71573;BME280;59408;51.032;9.410;2023-04-15T12:18:44;98372.78;;;5.57;100.00
71573;BME280;59408;51.032;9.410;2023-04-15T12:21:11;98370.56;;;5.59;100.00
71573;BME280;59408;51.032;9.410;2023-04-15T12:23:38;98376.28;;;5.58;100.00
71573;BME280;59408;51.032;9.410;2023-04-15T12:26:05;98378.38;;;5.52;100.00
71573;BME280;59408;51.032;9.410;2023-04-15T12:28:33;98385.19;;;5.58;100.00
71573;BME280;59408;51.032;9.410;2023-04-15T12:31:06;98388.06;;;5.62;100.00
71573;BME280;59408;51.032;9.410;2023-04-15T12:33:33;98389.97;;;5.61;100.00
71573;BME280;59408;51.032;9.410;2023-04-15T12:35:59;98393.97;;;5.64;100.00
71573;BME280;59408;51.032;9.410;2023-04-15T12:38:26;98392.06;;;5.64;100.00
71573;BME280;59408;51.032;9.410;2023-04-15T12:40:53;98396.66;;;5.72;100.00
71573;BME280;59408;51.032;9.410;2023-04-15T12:43:19;98397.44;;;5.73;100.00
71573;BME280;59408;51.032;9.410;2023-04-15T12:45:46;98394.72;;;5.73;100.00
71573;BME280;59408;51.032;9.410;2023-04-15T12:48:14;98405.56;;;5.73;100.00
71573;BME280;59408;51.032;9.410;2023-04-15T12:50:40;98394.25;;;5.71;100.00
71573;BME280;59408;51.032;9.410;2023-04-15T12:53:07;98401.06;;;5.77;100.00
71573;BME280;59408;51.032;9.410;2023-04-15T12:55:34;98405.84;;;5.80;100.00
71573;BME280;59408;51.032;9.410;2023-04-15T12:58:00;98407.44;;;5.81;100.00
71573;BME280;59408;51.032;9.410;2023-04-15T13:00:27;98400.56;;;5.84;100.00
71573;BME280;59408;51.032;9.410;2023-04-15T13:02:53;98410.16;;;5.81;100.00
71573;BME280;59408;51.032;9.410;2023-04-15T13:05:22;98408.25;;;5.82;100.00